createdAt,value
2023-01-29T00:01:48.384Z,3.60
2023-01-29T00:06:50.921Z,3.50
2023-01-29T00:11:53.515Z,3.60
2023-01-29T00:16:56.035Z,3.53
2023-01-29T00:21:59.137Z,3.67
2023-01-29T00:27:01.517Z,3.47
2023-01-29T00:32:04.311Z,3.40
2023-01-29T00:37:09.049Z,3.80
2023-01-29T00:42:30.099Z,3.60
2023-01-29T00:47:35.575Z,3.03
2023-01-29T00:52:38.558Z,3.43
2023-01-29T00:57:41.163Z,3.40
2023-01-29T01:03:02.751Z,3.20
2023-01-29T01:08:25.435Z,2.80
2023-01-29T01:13:28.264Z,3.83
2023-01-29T01:18:31.542Z,3.50
2023-01-29T01:23:34.269Z,3.53
2023-01-29T01:28:36.987Z,3.30
2023-01-29T01:33:39.738Z,3.03
2023-01-29T01:38:45.323Z,3.23
2023-01-29T01:43:57.957Z,3.40
2023-01-29T01:49:16.280Z,3.10
2023-01-29T01:54:30.486Z,3.73
2023-01-29T01:59:33.996Z,3.47
2023-01-29T02:04:55.101Z,3.33
2023-01-29T02:10:13.646Z,3.10
2023-01-29T02:15:16.111Z,3.00
2023-01-29T02:20:26.763Z,2.77
2023-01-29T02:25:39.397Z,2.77
2023-01-29T02:30:47.703Z,2.80
2023-01-29T02:36:13.067Z,3.00
2023-01-29T02:41:31.625Z,2.90
2023-01-29T02:46:52.409Z,3.03
2023-01-29T02:52:00.279Z,3.00
2023-01-29T02:57:32.831Z,3.10
2023-01-29T03:02:59.495Z,3.17
2023-01-29T03:08:11.580Z,3.40
2023-01-29T03:13:18.257Z,3.17
2023-01-29T03:18:27.908Z,2.97
2023-01-29T03:23:55.315Z,3.07
2023-01-29T03:29:18.609Z,3.00
2023-01-29T03:34:28.719Z,3.10
2023-01-29T03:39:31.519Z,2.93
2023-01-29T03:45:11.694Z,2.90
2023-01-29T03:50:29.661Z,2.80
2023-01-29T03:55:55.435Z,3.20
2023-01-29T04:01:14.578Z,3.07
2023-01-29T04:06:22.158Z,3.17
2023-01-29T04:11:43.474Z,3.37
2023-01-29T04:16:52.262Z,3.07
2023-01-29T04:22:07.241Z,2.53
2023-01-29T04:27:23.161Z,3.00
2023-01-29T04:32:55.483Z,2.50
2023-01-29T04:38:11.541Z,3.10
2023-01-29T04:43:28.969Z,2.90
2023-01-29T04:48:50.840Z,3.00
2023-01-29T04:53:55.966Z,3.10
2023-01-29T04:59:06.013Z,2.93
2023-01-29T05:04:16.637Z,3.20
2023-01-29T05:09:20.004Z,3.20
2023-01-29T05:14:25.048Z,3.00
2023-01-29T05:19:27.795Z,3.23
2023-01-29T05:24:30.689Z,3.67
2023-01-29T05:29:33.260Z,3.00
2023-01-29T05:34:35.753Z,2.90
2023-01-29T05:39:38.154Z,2.90
2023-01-29T05:44:40.983Z,3.23
2023-01-29T05:49:43.447Z,2.60
2023-01-29T05:54:45.944Z,2.97
2023-01-29T05:59:48.363Z,3.33
2023-01-29T06:04:52.782Z,3.10
2023-01-29T06:09:55.354Z,3.40
2023-01-29T06:14:57.841Z,3.00
2023-01-29T06:20:00.662Z,2.80
2023-01-29T06:25:03.782Z,3.20
2023-01-29T06:30:07.143Z,3.13
2023-01-29T06:35:10.822Z,2.73
2023-01-29T06:40:13.614Z,3.37
2023-01-29T06:45:16.071Z,3.10
2023-01-29T06:50:18.747Z,2.90
2023-01-29T06:55:21.291Z,2.80
2023-01-29T07:00:23.777Z,3.10
2023-01-29T07:05:26.517Z,2.87
2023-01-29T07:10:29.263Z,3.30
2023-01-29T07:15:32.021Z,3.40
2023-01-29T07:20:34.442Z,3.90
2023-01-29T07:25:36.915Z,3.33
2023-01-29T07:30:39.445Z,2.70
2023-01-29T07:35:43.600Z,3.40
2023-01-29T07:40:46.232Z,4.57
2023-01-29T07:45:48.801Z,3.53
2023-01-29T07:50:58.615Z,3.40
2023-01-29T07:56:01.155Z,3.57
2023-01-29T08:01:09.697Z,3.30
2023-01-29T08:06:12.117Z,3.77
2023-01-29T08:11:15.468Z,3.83
2023-01-29T08:16:17.928Z,2.93
2023-01-29T08:21:20.300Z,3.50
2023-01-29T08:26:22.813Z,2.80
2023-01-29T08:31:25.411Z,4.00
2023-01-29T08:36:28.086Z,4.07
2023-01-29T08:41:30.891Z,3.87
2023-01-29T08:46:33.420Z,4.20
2023-01-29T08:51:35.963Z,4.23
2023-01-29T08:56:38.592Z,3.97
2023-01-29T09:01:41.213Z,3.90
2023-01-29T09:06:43.687Z,3.93
2023-01-29T09:11:46.109Z,4.17
2023-01-29T09:16:48.532Z,4.00
2023-01-29T09:21:50.977Z,4.30
2023-01-29T09:26:53.453Z,3.60
2023-01-29T09:31:56.023Z,4.03
2023-01-29T09:36:58.804Z,4.00
2023-01-29T09:42:36.219Z,4.07
2023-01-29T09:47:38.913Z,4.00
2023-01-29T09:52:53.286Z,4.00
2023-01-29T09:58:03.784Z,4.20
2023-01-29T10:03:27.337Z,4.40
2023-01-29T10:09:14.683Z,4.40
2023-01-29T10:14:32.370Z,4.47
2023-01-29T10:19:50.897Z,4.27
2023-01-29T10:24:58.300Z,4.77
2023-01-29T10:30:06.564Z,4.33
2023-01-29T10:35:28.167Z,4.53
2023-01-29T10:40:47.046Z,4.40
2023-01-29T10:45:55.657Z,4.77
2023-01-29T10:51:14.774Z,4.70
2023-01-29T10:56:29.230Z,4.93
2023-01-29T11:01:32.271Z,4.77
2023-01-29T11:06:36.624Z,4.50
2023-01-29T11:12:05.898Z,4.30
2023-01-29T11:17:16.989Z,4.00
2023-01-29T11:22:24.944Z,4.37
2023-01-29T11:27:29.873Z,4.67
2023-01-29T11:32:35.962Z,4.70
2023-01-29T11:37:41.165Z,4.60
2023-01-29T11:42:43.609Z,4.47
2023-01-29T11:47:50.058Z,4.83
2023-01-29T11:52:53.131Z,3.60
2023-01-29T11:58:16.954Z,4.80
2023-01-29T12:03:32.674Z,4.70
2023-01-29T12:08:39.063Z,4.07
2023-01-29T12:13:45.588Z,3.97
2023-01-29T12:19:17.110Z,4.73
2023-01-29T12:24:35.704Z,4.50
2023-01-29T12:29:41.478Z,4.60
2023-01-29T12:34:50.056Z,4.57
2023-01-29T12:39:53.078Z,5.03
2023-01-29T12:45:01.009Z,4.70
2023-01-29T12:50:26.733Z,5.30
2023-01-29T12:55:32.424Z,4.90
2023-01-29T13:00:39.995Z,4.80
2023-01-29T13:05:49.641Z,4.80
2023-01-29T13:10:55.097Z,4.30
2023-01-29T13:16:01.329Z,4.90
2023-01-29T13:21:05.421Z,4.80
2023-01-29T13:26:08.062Z,4.83
2023-01-29T13:31:24.951Z,4.90
2023-01-29T13:36:30.911Z,4.93
2023-01-29T13:41:42.599Z,4.30
2023-01-29T13:46:54.731Z,3.97
2023-01-29T13:51:58.896Z,4.40
2023-01-29T13:57:02.364Z,4.80
2023-01-29T14:02:19.480Z,5.20
2023-01-29T14:07:43.840Z,4.70
2023-01-29T14:12:48.006Z,5.10
2023-01-29T14:18:16.227Z,5.10
2023-01-29T14:23:24.954Z,5.13
2023-01-29T14:28:30.816Z,4.60
2023-01-29T14:33:43.422Z,5.13
2023-01-29T14:38:51.918Z,4.17
2023-01-29T14:44:33.098Z,4.97
2023-01-29T14:49:50.950Z,5.00
2023-01-29T14:54:58.500Z,4.40
2023-01-29T15:00:05.518Z,4.90
2023-01-29T15:05:23.959Z,5.10
2023-01-29T15:10:38.095Z,4.40
2023-01-29T15:16:13.551Z,4.70
2023-01-29T15:21:18.664Z,4.27
2023-01-29T15:26:27.118Z,4.87
2023-01-29T15:31:30.204Z,4.63
2023-01-29T15:36:33.451Z,5.03
2023-01-29T15:41:36.269Z,4.37
2023-01-29T15:46:40.853Z,4.43
2023-01-29T15:51:43.582Z,4.47
2023-01-29T15:56:51.202Z,4.40
2023-01-29T16:01:54.174Z,4.63
2023-01-29T16:06:58.417Z,6.40
2023-01-29T16:12:01.286Z,5.93
2023-01-29T16:17:24.198Z,4.73
2023-01-29T16:22:32.211Z,4.90
2023-01-29T16:27:35.431Z,5.73
2023-01-29T16:32:41.000Z,4.80
2023-01-29T16:37:47.906Z,6.40
2023-01-29T16:42:58.626Z,5.70
2023-01-29T16:48:22.180Z,5.80
2023-01-29T16:53:27.392Z,5.77
2023-01-29T16:58:30.591Z,6.30
2023-01-29T17:03:35.369Z,5.07
2023-01-29T17:08:38.799Z,5.23
2023-01-29T17:13:44.055Z,5.50
2023-01-29T17:18:46.710Z,5.53
2023-01-29T17:23:49.238Z,6.40
2023-01-29T17:28:53.886Z,6.03
2023-01-29T17:33:56.694Z,4.83
2023-01-29T17:39:01.368Z,4.50
2023-01-29T17:44:04.213Z,4.80
2023-01-29T17:49:15.187Z,5.73
2023-01-29T17:54:17.630Z,6.00
2023-01-29T17:59:22.742Z,5.50
2023-01-29T18:04:26.664Z,5.57
2023-01-29T18:09:29.931Z,4.60
2023-01-29T18:14:32.717Z,4.50
2023-01-29T18:19:35.414Z,5.10
2023-01-29T18:24:37.893Z,3.90
2023-01-29T18:29:40.795Z,5.53
2023-01-29T18:34:43.298Z,4.93
2023-01-29T18:39:45.725Z,5.60
2023-01-29T18:44:49.019Z,6.20
2023-01-29T18:49:52.173Z,5.43
2023-01-29T18:54:54.985Z,5.70
2023-01-29T18:59:57.482Z,6.53
2023-01-29T19:05:00.226Z,8.50
2023-01-29T19:10:06.727Z,7.70
2023-01-29T19:15:11.363Z,8.50
2023-01-29T19:20:14.003Z,7.43
2023-01-29T19:25:18.091Z,6.47
2023-01-29T19:30:20.853Z,5.20
2023-01-29T19:35:23.822Z,4.97
2023-01-29T19:40:26.617Z,5.30
2023-01-29T19:45:49.781Z,5.30
2023-01-29T19:50:57.749Z,6.30
2023-01-29T19:56:02.945Z,5.47
2023-01-29T20:01:29.801Z,4.77
2023-01-29T20:06:32.444Z,4.83
2023-01-29T20:11:35.003Z,6.53
2023-01-29T20:16:38.643Z,7.53
2023-01-29T20:21:41.841Z,7.63
2023-01-29T20:26:47.736Z,9.03
2023-01-29T20:31:50.596Z,7.10
2023-01-29T20:36:53.320Z,9.10
2023-01-29T20:41:57.320Z,5.97
2023-01-29T20:47:02.603Z,7.40
2023-01-29T20:52:06.108Z,6.57
2023-01-29T20:57:08.508Z,6.17
2023-01-29T21:02:11.783Z,6.43
2023-01-29T21:07:14.230Z,6.40
2023-01-29T21:12:16.807Z,5.63
2023-01-29T21:17:19.255Z,5.77
2023-01-29T21:22:23.527Z,6.07
2023-01-29T21:27:26.045Z,5.07
2023-01-29T21:32:28.478Z,5.43
2023-01-29T21:37:32.677Z,6.63
2023-01-29T21:42:54.040Z,5.57
2023-01-29T21:47:56.741Z,5.50
2023-01-29T21:52:59.514Z,6.10
2023-01-29T21:58:02.305Z,5.53
2023-01-29T22:03:06.724Z,5.80
2023-01-29T22:08:09.909Z,5.33
2023-01-29T22:13:12.737Z,4.50
2023-01-29T22:18:15.365Z,5.57
2023-01-29T22:23:17.824Z,5.17
2023-01-29T22:28:20.570Z,5.10
2023-01-29T22:33:22.982Z,4.93
2023-01-29T22:38:25.587Z,5.00
2023-01-29T22:43:29.390Z,4.57
2023-01-29T22:48:32.289Z,4.60
2023-01-29T22:53:37.465Z,5.23
2023-01-29T22:58:41.297Z,5.17
2023-01-29T23:03:43.968Z,4.83
2023-01-29T23:08:46.410Z,4.90
2023-01-29T23:13:51.503Z,5.60
2023-01-29T23:18:57.690Z,5.43
2023-01-29T23:24:01.439Z,4.90
2023-01-29T23:29:04.385Z,5.23
2023-01-29T23:34:07.027Z,5.47
2023-01-29T23:39:11.064Z,5.07
2023-01-29T23:44:14.143Z,5.23
2023-01-29T23:49:16.653Z,5.03
2023-01-29T23:54:19.435Z,4.93
2023-01-29T23:59:22.289Z,4.87
